map of MNC home
MNC - Airport
Location
City:  Nacala, Nampula, Mozambique
Name:Nacala Airport
ICAO:FQNC
IATA:MNC

Details
Type:Airport (Aerodrome, Airfield)
Use:Military
Latitude:1429'18"S (-14.488232)
Longitude:4042'44"E (40.712250)
Datum:WGS 1984
Elevation:410 ft (125 m)
Variation:8.29W (WMM2015v2 magnetic declination)
-0.06 annual change
Runways:1
Longest:8202 × 148 ft (2500 × 45 m), paved

Time
Time Zone:UTC+2
Local Time:

Weather
METAR:FQNC 041400Z 09010KT 9999 BKN020 30/24 Q1010
TAF:FQNC 041000Z 0412/0512 08004KT 9999 SCT015 BKN020 FEW025CB TX32/0413Z TN22/0503Z PROB30
TEMPO 0412/0418 5000 -TSRA SCT010 FEW020CB
BECMG 0418/0420 10010KT SCT020
BECMG 0500/0502 VRB03KT
BECMG 0506/0508 35007KT

Related Locations
Nearby:
Farthest:ITO: 11345 mi / 18258 km
Hilo [Hilo Intl], Hawaii, HI, US

Find:

   beyond  
but within

Other Information
Maps:
NOTAMs:
Links:
Sources:

  
  • flag of Mozambique
  

Sectional Chart

Flight Planning
at skyvector.com

Satellite Image

Google Maps Satellite view

 

Copyright © 2004-2019 Karl L. Swartz. All rights reserved.
The Great Circle Mapper name and logo are trademarks of the Great Circle Mapper.
All other trademarks mentioned herein belong to their respective owners.
Please see credits for attibutions and further copyright information.

  Follow gcmap on Facebook Follow gcmap on Twitter GCmap on LinkedIn

hCard Microformat

Geo Microformat